createdAt,value
2022-09-03T00:00:41.222Z,17.38
2022-09-03T00:01:41.253Z,17.41
2022-09-03T00:02:41.284Z,17.42
2022-09-03T00:03:41.179Z,17.46
2022-09-03T00:04:41.167Z,17.41
2022-09-03T00:05:41.160Z,17.44
2022-09-03T00:06:41.146Z,17.49
2022-09-03T00:07:41.129Z,17.49
2022-09-03T00:08:41.111Z,17.49
2022-09-03T00:09:41.101Z,17.47
2022-09-03T00:10:41.084Z,17.46
2022-09-03T00:11:41.072Z,17.49
2022-09-03T00:12:41.054Z,17.44
2022-09-03T00:13:41.045Z,17.44
2022-09-03T00:14:41.030Z,17.39
2022-09-03T00:15:41.080Z,17.44
2022-09-03T00:16:41.004Z,17.37
2022-09-03T00:17:40.990Z,17.39
2022-09-03T00:18:41.002Z,17.39
2022-09-03T00:19:40.962Z,17.46
2022-09-03T00:20:40.947Z,17.37
2022-09-03T00:21:40.945Z,17.37
2022-09-03T00:22:40.923Z,17.41
2022-09-03T00:23:40.914Z,17.34
2022-09-03T00:24:40.893Z,17.34
2022-09-03T00:25:40.883Z,17.31
2022-09-03T00:26:40.869Z,17.28
2022-09-03T00:27:40.859Z,17.34
2022-09-03T00:28:40.839Z,17.30
2022-09-03T00:29:40.826Z,17.31
2022-09-03T00:30:40.813Z,17.32
2022-09-03T00:31:40.801Z,17.30
2022-09-03T00:32:40.790Z,17.24
2022-09-03T00:33:40.773Z,17.24
2022-09-03T00:34:40.766Z,17.23
2022-09-03T00:35:40.745Z,17.17
2022-09-03T00:36:40.730Z,17.28
2022-09-03T00:37:40.723Z,17.19
2022-09-03T00:38:40.707Z,17.19
2022-09-03T00:39:40.756Z,17.13
2022-09-03T00:40:40.676Z,17.17
2022-09-03T00:41:40.665Z,17.14
2022-09-03T00:42:40.661Z,17.19
2022-09-03T00:43:40.641Z,17.17
2022-09-03T00:44:40.622Z,17.12
2022-09-03T00:45:40.611Z,17.13
2022-09-03T00:46:40.619Z,17.07
2022-09-03T00:47:40.585Z,17.16
2022-09-03T00:48:40.573Z,17.14
2022-09-03T00:49:40.555Z,17.07
2022-09-03T00:50:40.547Z,17.10
2022-09-03T00:51:40.543Z,17.05
2022-09-03T00:52:40.519Z,17.10
2022-09-03T00:53:40.503Z,17.10
2022-09-03T00:54:40.484Z,17.04
2022-09-03T00:55:40.473Z,17.09
2022-09-03T00:56:40.464Z,17.16
2022-09-03T00:57:40.449Z,16.99
2022-09-03T00:58:40.429Z,17.09
2022-09-03T00:59:40.417Z,17.01
2022-09-03T01:00:40.405Z,17.05
2022-09-03T01:01:40.474Z,17.10
2022-09-03T01:02:40.484Z,17.12
2022-09-03T01:03:40.364Z,17.01
2022-09-03T01:04:40.350Z,17.01
2022-09-03T01:05:40.337Z,17.04
2022-09-03T01:06:40.323Z,17.12
2022-09-03T01:07:40.309Z,17.09
2022-09-03T01:08:40.297Z,17.02
2022-09-03T01:09:40.282Z,17.04
2022-09-03T01:10:40.274Z,17.05
2022-09-03T01:11:40.254Z,17.04
2022-09-03T01:12:40.241Z,17.04
2022-09-03T01:13:40.227Z,17.05
2022-09-03T01:14:40.216Z,16.99
2022-09-03T01:15:40.225Z,16.87
2022-09-03T01:16:40.184Z,16.92
2022-09-03T01:17:40.175Z,16.92
2022-09-03T01:18:40.159Z,16.98
2022-09-03T01:19:40.146Z,16.94
2022-09-03T01:20:40.128Z,16.94
2022-09-03T01:21:40.121Z,16.94
2022-09-03T01:22:40.756Z,16.91
2022-09-03T01:23:40.092Z,16.83
2022-09-03T01:24:40.074Z,16.84
2022-09-03T01:25:40.062Z,16.91
2022-09-03T01:26:40.048Z,16.84
2022-09-03T01:27:40.033Z,16.92
2022-09-03T01:28:40.023Z,16.82
2022-09-03T01:29:40.009Z,16.80
2022-09-03T01:30:40.029Z,16.84
2022-09-03T01:31:39.980Z,16.87
2022-09-03T01:32:39.963Z,16.82
2022-09-03T01:33:39.952Z,16.84
2022-09-03T01:34:39.936Z,16.89
2022-09-03T01:35:39.923Z,16.89
2022-09-03T01:36:39.907Z,16.87
2022-09-03T01:37:39.896Z,16.86
2022-09-03T01:38:39.883Z,16.80
2022-09-03T01:39:39.903Z,16.83
2022-09-03T01:40:39.854Z,16.82
2022-09-03T01:41:39.841Z,16.83
2022-09-03T01:42:39.826Z,16.84
2022-09-03T01:43:44.700Z,16.83
2022-09-03T01:44:39.802Z,16.82
2022-09-03T01:45:39.790Z,16.86
2022-09-03T01:46:39.847Z,16.84
2022-09-03T01:47:39.759Z,16.82
2022-09-03T01:48:39.746Z,16.84
2022-09-03T01:49:39.731Z,16.80
2022-09-03T01:50:39.722Z,16.86
2022-09-03T01:51:39.712Z,16.82
2022-09-03T01:52:39.689Z,16.73
2022-09-03T01:53:39.679Z,16.79
2022-09-03T01:54:39.661Z,16.82
2022-09-03T01:55:39.652Z,16.66
2022-09-03T01:56:39.633Z,16.79
2022-09-03T01:57:39.626Z,16.82
2022-09-03T01:58:39.614Z,16.86
2022-09-03T01:59:39.593Z,16.83
2022-09-03T02:00:39.578Z,16.83
2022-09-03T02:01:39.633Z,16.79
2022-09-03T02:02:39.683Z,16.82
2022-09-03T02:03:40.925Z,16.82
2022-09-03T02:04:39.525Z,16.73
2022-09-03T02:05:39.530Z,16.86
2022-09-03T02:06:39.496Z,16.68
2022-09-03T02:07:39.495Z,16.79
2022-09-03T02:08:39.475Z,16.80
2022-09-03T02:09:39.456Z,16.79
2022-09-03T02:10:39.444Z,16.76
2022-09-03T02:11:39.427Z,16.76
2022-09-03T02:12:39.412Z,16.74
2022-09-03T02:13:39.405Z,16.76
2022-09-03T02:14:39.388Z,16.73
2022-09-03T02:15:39.431Z,16.73
2022-09-03T02:16:39.358Z,16.72
2022-09-03T02:17:39.343Z,16.77
2022-09-03T02:18:39.333Z,16.73
2022-09-03T02:19:39.321Z,16.76
2022-09-03T02:20:39.302Z,16.73
2022-09-03T02:21:39.287Z,16.69
2022-09-03T02:22:39.282Z,16.74
2022-09-03T02:23:39.269Z,16.73
2022-09-03T02:24:39.250Z,16.69
2022-09-03T02:25:39.231Z,16.69
2022-09-03T02:26:39.230Z,16.68
2022-09-03T02:27:39.210Z,16.77
2022-09-03T02:28:39.192Z,16.74
2022-09-03T02:29:39.175Z,16.68
2022-09-03T02:30:39.197Z,16.68
2022-09-03T02:31:39.148Z,16.73
2022-09-03T02:32:39.137Z,16.76
2022-09-03T02:33:39.124Z,16.69
2022-09-03T02:34:39.111Z,16.73
2022-09-03T02:35:39.093Z,16.72
2022-09-03T02:36:39.082Z,16.74
2022-09-03T02:37:39.067Z,16.77
2022-09-03T02:38:39.053Z,16.74
2022-09-03T02:39:39.498Z,16.74
2022-09-03T02:40:39.025Z,16.69
2022-09-03T02:41:39.010Z,16.72
2022-09-03T02:42:39.000Z,16.72
2022-09-03T02:43:38.987Z,16.73
2022-09-03T02:44:38.969Z,16.74
2022-09-03T02:45:38.993Z,16.76
2022-09-03T02:46:38.945Z,16.73
2022-09-03T02:47:38.932Z,16.79
2022-09-03T02:48:38.914Z,16.69
2022-09-03T02:49:38.901Z,16.84
2022-09-03T02:50:38.891Z,16.84
2022-09-03T02:51:38.875Z,16.89
2022-09-03T02:52:38.859Z,16.84
2022-09-03T02:53:38.846Z,16.82
2022-09-03T02:54:38.832Z,16.89
2022-09-03T02:55:38.817Z,16.91
2022-09-03T02:56:38.807Z,16.87
2022-09-03T02:57:38.795Z,16.89
2022-09-03T02:58:38.785Z,16.84
2022-09-03T02:59:38.763Z,16.86
2022-09-03T03:00:38.751Z,16.79
2022-09-03T03:01:38.756Z,16.89
2022-09-03T03:02:38.807Z,16.80
2022-09-03T03:03:38.707Z,16.82
2022-09-03T03:04:38.697Z,16.83
2022-09-03T03:05:38.684Z,16.79
2022-09-03T03:06:38.675Z,16.80
2022-09-03T03:07:38.652Z,16.83
2022-09-03T03:08:38.641Z,16.83
2022-09-03T03:09:38.627Z,16.83
2022-09-03T03:10:38.620Z,16.76
2022-09-03T03:11:38.602Z,16.74
2022-09-03T03:12:38.585Z,16.74
2022-09-03T03:13:38.571Z,16.72
2022-09-03T03:14:38.568Z,16.80
2022-09-03T03:15:38.554Z,16.79
2022-09-03T03:16:38.565Z,16.74
2022-09-03T03:17:38.521Z,16.73
2022-09-03T03:18:38.508Z,16.73
2022-09-03T03:19:38.493Z,16.73
2022-09-03T03:20:38.477Z,16.76
2022-09-03T03:21:38.463Z,16.65
2022-09-03T03:22:38.448Z,16.65
2022-09-03T03:23:38.432Z,16.65
2022-09-03T03:24:38.420Z,16.69
2022-09-03T03:25:38.409Z,16.59
2022-09-03T03:26:38.393Z,16.51
2022-09-03T03:27:38.380Z,16.46
2022-09-03T03:28:38.367Z,16.50
2022-09-03T03:29:38.350Z,16.41
2022-09-03T03:30:38.379Z,16.28
2022-09-03T03:31:38.326Z,16.31
2022-09-03T03:32:38.316Z,16.29
2022-09-03T03:33:38.301Z,16.31
2022-09-03T03:34:38.288Z,16.25
2022-09-03T03:35:38.268Z,16.24
2022-09-03T03:36:38.256Z,16.22
2022-09-03T03:37:38.240Z,16.17
2022-09-03T03:38:38.241Z,16.10
2022-09-03T03:39:38.221Z,16.06
2022-09-03T03:40:38.199Z,16.03
2022-09-03T03:41:38.184Z,16.03
2022-09-03T03:42:38.177Z,16.00
2022-09-03T03:43:38.157Z,15.94
2022-09-03T03:44:38.146Z,15.96
2022-09-03T03:45:38.146Z,16.00
2022-09-03T03:46:38.116Z,15.94
2022-09-03T03:47:38.105Z,15.85
2022-09-03T03:48:38.128Z,15.90
2022-09-03T03:49:38.074Z,15.91
2022-09-03T03:50:38.060Z,15.90
2022-09-03T03:51:38.043Z,15.91
2022-09-03T03:52:38.067Z,15.98
2022-09-03T03:53:38.017Z,15.88
2022-09-03T03:54:38.009Z,15.90
2022-09-03T03:55:37.988Z,15.99
2022-09-03T03:56:37.980Z,15.84
2022-09-03T03:57:37.960Z,16.00
2022-09-03T03:58:37.948Z,15.91
2022-09-03T03:59:37.932Z,15.90
2022-09-03T04:00:37.922Z,15.90
2022-09-03T04:01:38.010Z,15.92
2022-09-03T04:02:39.277Z,15.96
2022-09-03T04:03:37.875Z,15.87
2022-09-03T04:04:37.863Z,15.91
2022-09-03T04:05:41.947Z,15.83
2022-09-03T04:06:37.837Z,15.87
2022-09-03T04:07:37.824Z,15.80
2022-09-03T04:08:37.821Z,15.92
2022-09-03T04:09:37.796Z,15.85
2022-09-03T04:10:37.784Z,15.92
2022-09-03T04:11:37.767Z,15.94
2022-09-03T04:12:37.753Z,15.98
2022-09-03T04:13:37.741Z,15.83
2022-09-03T04:14:37.729Z,15.87
2022-09-03T04:15:37.711Z,15.87
2022-09-03T04:16:37.743Z,15.90
2022-09-03T04:17:37.680Z,15.80
2022-09-03T04:18:37.667Z,15.83
2022-09-03T04:19:37.653Z,15.76
2022-09-03T04:20:37.643Z,15.81
2022-09-03T04:21:37.623Z,15.76
2022-09-03T04:22:37.615Z,15.78
2022-09-03T04:23:37.600Z,15.73
2022-09-03T04:24:37.583Z,15.80
2022-09-03T04:25:37.570Z,15.75
2022-09-03T04:26:37.556Z,15.83
2022-09-03T04:27:37.545Z,15.66
2022-09-03T04:28:37.529Z,15.69
2022-09-03T04:29:37.517Z,15.72
2022-09-03T04:30:37.533Z,15.70
2022-09-03T04:31:37.482Z,15.69
2022-09-03T04:32:37.471Z,15.66
2022-09-03T04:33:37.455Z,15.70
2022-09-03T04:34:37.442Z,15.55
2022-09-03T04:35:37.427Z,15.59
2022-09-03T04:36:37.444Z,15.59
2022-09-03T04:37:37.399Z,15.52
2022-09-03T04:38:37.393Z,15.65
2022-09-03T04:39:37.412Z,15.55
2022-09-03T04:40:37.360Z,15.63
2022-09-03T04:41:37.342Z,15.60
2022-09-03T04:42:37.339Z,15.55
2022-09-03T04:43:37.316Z,15.55
2022-09-03T04:44:37.301Z,15.69
2022-09-03T04:45:37.347Z,15.69
2022-09-03T04:46:37.273Z,15.70
2022-09-03T04:47:37.255Z,15.69
2022-09-03T04:48:37.824Z,15.73
2022-09-03T04:49:37.232Z,15.72
2022-09-03T04:50:37.218Z,15.70
2022-09-03T04:51:37.201Z,15.69
2022-09-03T04:52:37.186Z,15.76
2022-09-03T04:53:37.173Z,15.75
2022-09-03T04:54:37.164Z,15.78
2022-09-03T04:55:37.142Z,15.75
2022-09-03T04:56:37.131Z,15.72
2022-09-03T04:57:37.115Z,15.73
2022-09-03T04:58:37.102Z,15.81
2022-09-03T04:59:37.085Z,15.75
2022-09-03T05:00:37.083Z,15.81
2022-09-03T05:01:37.129Z,15.78
2022-09-03T05:02:37.090Z,15.76
2022-09-03T05:03:37.033Z,15.81
2022-09-03T05:04:37.015Z,15.73
2022-09-03T05:05:37.003Z,15.72
2022-09-03T05:06:36.995Z,15.73
2022-09-03T05:07:36.972Z,15.81
2022-09-03T05:08:36.960Z,15.75
2022-09-03T05:09:36.945Z,15.80
2022-09-03T05:10:36.933Z,15.73
2022-09-03T05:11:36.914Z,15.80
2022-09-03T05:12:36.905Z,15.72
2022-09-03T05:13:36.888Z,15.80
2022-09-03T05:14:36.877Z,15.76
2022-09-03T05:15:36.859Z,15.73
2022-09-03T05:16:36.904Z,15.75
2022-09-03T05:17:37.878Z,15.81
2022-09-03T05:18:36.818Z,15.83
2022-09-03T05:19:36.803Z,15.88
2022-09-03T05:20:36.790Z,15.92
2022-09-03T05:21:36.776Z,15.81
2022-09-03T05:22:36.761Z,15.88
2022-09-03T05:23:37.750Z,15.85
2022-09-03T05:24:36.732Z,15.83
2022-09-03T05:25:36.717Z,15.92
2022-09-03T05:26:36.706Z,15.87
2022-09-03T05:27:36.691Z,15.88
2022-09-03T05:28:36.681Z,15.85
2022-09-03T05:29:36.667Z,15.91
2022-09-03T05:30:36.648Z,15.84
2022-09-03T05:31:36.684Z,15.78
2022-09-03T05:32:36.624Z,15.85
2022-09-03T05:33:36.606Z,15.88
2022-09-03T05:34:36.597Z,15.84
2022-09-03T05:35:36.574Z,15.88
2022-09-03T05:36:36.563Z,15.83
2022-09-03T05:39:12.274Z,15.98
2022-09-03T05:40:11.951Z,15.90
2022-09-03T05:42:17.606Z,15.98
2022-09-03T05:43:17.222Z,15.94
2022-09-03T05:45:22.231Z,16.02
2022-09-03T05:46:21.890Z,16.00
2022-09-03T05:48:27.509Z,15.99
2022-09-03T05:49:27.505Z,16.02
2022-09-03T05:51:32.938Z,16.00
2022-09-03T05:52:32.552Z,16.05
2022-09-03T05:54:38.267Z,16.08
2022-09-03T05:55:38.434Z,16.05
2022-09-03T05:56:38.021Z,16.06
2022-09-03T05:57:37.995Z,16.00
2022-09-03T05:58:37.997Z,16.05
2022-09-03T05:59:38.412Z,16.06
2022-09-03T06:00:38.349Z,16.09
2022-09-03T06:01:37.998Z,16.06
2022-09-03T06:02:38.765Z,16.03
2022-09-03T06:03:38.133Z,16.13
2022-09-03T06:04:37.880Z,16.06
2022-09-03T06:05:37.863Z,16.10
2022-09-03T06:06:37.847Z,16.05
2022-09-03T06:07:37.838Z,16.02
2022-09-03T06:08:37.822Z,16.03
2022-09-03T06:09:37.805Z,16.06
2022-09-03T06:10:41.064Z,16.06
2022-09-03T06:11:37.780Z,16.06
2022-09-03T06:12:37.762Z,16.12
2022-09-03T06:13:37.752Z,16.13
2022-09-03T06:14:37.735Z,16.10
2022-09-03T06:15:37.722Z,16.08
2022-09-03T06:16:37.812Z,16.12
2022-09-03T06:17:37.704Z,16.03
2022-09-03T06:18:37.679Z,16.05
2022-09-03T06:19:37.665Z,15.99
2022-09-03T06:20:37.664Z,16.00
2022-09-03T06:21:37.650Z,15.92
2022-09-03T06:22:37.625Z,15.90
2022-09-03T06:23:37.616Z,15.87
2022-09-03T06:24:37.601Z,15.81
2022-09-03T06:25:37.585Z,15.76
2022-09-03T06:26:37.576Z,15.80
2022-09-03T06:27:37.556Z,15.72
2022-09-03T06:28:37.539Z,15.69
2022-09-03T06:29:37.522Z,15.67
2022-09-03T06:30:37.510Z,15.70
2022-09-03T06:31:37.551Z,15.63
2022-09-03T06:32:37.484Z,15.66
2022-09-03T06:33:37.472Z,15.60
2022-09-03T06:34:37.451Z,15.51
2022-09-03T06:35:43.002Z,15.48
2022-09-03T06:36:37.426Z,15.51
2022-09-03T06:37:37.409Z,15.51
2022-09-03T06:38:37.416Z,15.57
2022-09-03T06:39:37.522Z,15.50
2022-09-03T06:40:37.370Z,15.45
2022-09-03T06:41:37.352Z,15.47
2022-09-03T06:42:37.338Z,15.48
2022-09-03T06:43:37.322Z,15.47
2022-09-03T06:44:37.323Z,15.37
2022-09-03T06:45:37.346Z,15.36
2022-09-03T06:46:37.277Z,15.37
2022-09-03T06:47:37.270Z,15.36
2022-09-03T06:48:37.261Z,15.44
2022-09-03T06:49:37.237Z,15.48
2022-09-03T06:50:37.221Z,15.41
2022-09-03T06:51:37.208Z,15.51
2022-09-03T06:52:37.197Z,15.60
2022-09-03T06:53:37.184Z,15.67
2022-09-03T06:54:37.163Z,15.69
2022-09-03T06:55:37.153Z,15.69
2022-09-03T06:56:40.209Z,15.65
2022-09-03T06:57:37.119Z,15.69
2022-09-03T06:58:37.102Z,15.66
2022-09-03T06:59:37.090Z,15.69
2022-09-03T07:00:37.175Z,15.81
2022-09-03T07:01:37.277Z,15.84
2022-09-03T07:02:39.687Z,15.84
2022-09-03T07:03:37.032Z,15.88
2022-09-03T07:04:37.023Z,15.92
2022-09-03T07:05:37.004Z,15.96
2022-09-03T07:06:36.989Z,15.99
2022-09-03T07:07:36.977Z,15.99
2022-09-03T07:08:36.963Z,16.13
2022-09-03T07:09:36.956Z,16.21
2022-09-03T07:10:36.930Z,16.26
2022-09-03T07:11:36.919Z,16.29
2022-09-03T07:12:36.903Z,16.43
2022-09-03T07:13:36.891Z,16.47
2022-09-03T07:14:36.877Z,16.50
2022-09-03T07:15:36.863Z,16.62
2022-09-03T07:16:37.023Z,16.69
2022-09-03T07:17:36.831Z,16.77
2022-09-03T07:18:36.820Z,16.84
2022-09-03T07:19:36.803Z,16.83
2022-09-03T07:20:36.794Z,16.79
2022-09-03T07:21:36.881Z,16.86
2022-09-03T07:22:36.760Z,16.87
2022-09-03T07:23:36.748Z,16.87
2022-09-03T07:24:36.732Z,16.94
2022-09-03T07:25:36.718Z,16.97
2022-09-03T07:26:36.709Z,16.94
2022-09-03T07:27:36.699Z,16.92
2022-09-03T07:28:36.678Z,17.01
2022-09-03T07:29:36.668Z,16.97
2022-09-03T07:30:36.661Z,17.09
2022-09-03T07:31:36.659Z,17.04
2022-09-03T07:32:36.622Z,17.14
2022-09-03T07:33:36.608Z,17.10
2022-09-03T07:34:36.592Z,17.10
2022-09-03T07:35:36.588Z,17.07
2022-09-03T07:36:36.569Z,17.04
2022-09-03T07:37:36.553Z,17.02
2022-09-03T07:38:36.539Z,16.99
2022-09-03T07:39:36.567Z,17.01
2022-09-03T07:40:36.514Z,17.12
2022-09-03T07:41:36.497Z,17.10
2022-09-03T07:42:36.485Z,17.12
2022-09-03T07:43:36.471Z,17.22
2022-09-03T07:44:36.457Z,17.30
2022-09-03T07:45:36.443Z,17.31
2022-09-03T07:46:36.465Z,17.30
2022-09-03T07:47:36.416Z,17.42
2022-09-03T07:48:37.577Z,17.46
2022-09-03T07:49:36.392Z,17.44
2022-09-03T07:50:36.378Z,17.49
2022-09-03T07:51:36.364Z,17.46
2022-09-03T07:52:36.351Z,17.52
2022-09-03T07:53:36.336Z,17.47
2022-09-03T07:54:36.337Z,17.44
2022-09-03T07:55:36.333Z,17.37
2022-09-03T07:56:36.294Z,17.38
2022-09-03T07:57:36.282Z,17.39
2022-09-03T07:58:36.266Z,17.38
2022-09-03T07:59:36.255Z,17.27
2022-09-03T08:00:36.251Z,17.34
2022-09-03T08:01:36.231Z,17.28
2022-09-03T08:02:36.213Z,17.31
2022-09-03T08:03:36.214Z,17.31
2022-09-03T08:04:36.186Z,17.24
2022-09-03T08:05:36.176Z,17.16
2022-09-03T08:06:36.161Z,17.14
2022-09-03T08:07:36.146Z,17.07
2022-09-03T08:08:36.133Z,16.97
2022-09-03T08:09:36.119Z,17.04
2022-09-03T08:10:36.106Z,16.99
2022-09-03T08:11:36.092Z,16.94
2022-09-03T08:12:36.077Z,16.89
2022-09-03T08:13:36.067Z,16.84
2022-09-03T08:14:36.061Z,16.83
2022-09-03T08:15:36.038Z,16.77
2022-09-03T08:16:36.068Z,16.76
2022-09-03T08:17:36.012Z,16.72
2022-09-03T08:18:35.997Z,16.68
2022-09-03T08:19:35.993Z,16.69
2022-09-03T08:20:35.970Z,16.68
2022-09-03T08:21:35.960Z,16.59
2022-09-03T08:22:35.941Z,16.66
2022-09-03T08:23:35.927Z,16.62
2022-09-03T08:24:35.914Z,16.68
2022-09-03T08:25:35.899Z,16.66
2022-09-03T08:26:35.895Z,16.72
2022-09-03T08:27:35.883Z,16.62
2022-09-03T08:28:35.856Z,16.65
2022-09-03T08:29:35.843Z,16.64
2022-09-03T08:30:35.829Z,16.64
2022-09-03T08:31:35.854Z,16.65
2022-09-03T08:32:35.801Z,16.76
2022-09-03T08:33:35.787Z,16.77
2022-09-03T08:34:35.772Z,16.83
2022-09-03T08:35:35.762Z,16.84
2022-09-03T08:36:35.744Z,16.79
2022-09-03T08:37:35.730Z,16.95
2022-09-03T08:38:35.721Z,16.99
2022-09-03T08:39:35.786Z,17.12
2022-09-03T08:40:35.689Z,17.27
2022-09-03T08:41:35.674Z,17.42
2022-09-03T08:42:35.660Z,17.57
2022-09-03T08:43:35.649Z,17.76
2022-09-03T08:44:35.645Z,17.95
2022-09-03T08:45:35.622Z,18.24
2022-09-03T08:46:35.647Z,18.41
2022-09-03T08:47:35.597Z,18.70
2022-09-03T08:48:35.580Z,18.76
2022-09-03T08:49:35.572Z,18.94
2022-09-03T08:50:35.566Z,19.15
2022-09-03T08:51:35.542Z,19.19
2022-09-03T08:52:35.531Z,19.29
2022-09-03T08:53:35.517Z,19.34
2022-09-03T08:54:35.503Z,19.30
2022-09-03T08:55:35.492Z,19.22
2022-09-03T08:56:35.494Z,19.05
2022-09-03T08:57:35.465Z,19.01
2022-09-03T08:58:35.453Z,18.96
2022-09-03T08:59:35.442Z,18.89
2022-09-03T09:00:35.426Z,18.78
2022-09-03T09:01:35.475Z,18.68
2022-09-03T09:02:35.524Z,18.74
2022-09-03T09:03:35.392Z,18.68
2022-09-03T09:04:35.379Z,18.85
2022-09-03T09:05:35.363Z,18.96
2022-09-03T09:06:35.352Z,19.11
2022-09-03T09:07:35.339Z,19.24
2022-09-03T09:08:35.324Z,19.39
2022-09-03T09:09:35.321Z,19.48
2022-09-03T09:10:35.300Z,19.77
2022-09-03T09:11:35.290Z,19.99
2022-09-03T09:12:42.673Z,20.04
2022-09-03T09:13:35.266Z,19.94
2022-09-03T09:14:35.256Z,20.02
2022-09-03T09:15:35.293Z,19.99
2022-09-03T09:16:35.230Z,19.97
2022-09-03T09:17:35.218Z,19.97
2022-09-03T09:18:35.206Z,20.08
2022-09-03T09:19:35.197Z,20.02
2022-09-03T09:20:35.182Z,20.02
2022-09-03T09:21:35.172Z,19.97
2022-09-03T09:22:35.161Z,19.92
2022-09-03T09:23:35.146Z,19.89
2022-09-03T09:24:35.133Z,19.75
2022-09-03T09:25:35.123Z,19.60
2022-09-03T09:26:35.112Z,19.59
2022-09-03T09:27:35.099Z,19.49
2022-09-03T09:28:35.087Z,19.41
2022-09-03T09:29:35.072Z,19.32
2022-09-03T09:30:35.063Z,19.15
2022-09-03T09:31:35.082Z,18.98
2022-09-03T09:32:35.045Z,18.97
2022-09-03T09:33:35.567Z,18.96
2022-09-03T09:34:35.015Z,18.85
2022-09-03T09:35:35.019Z,18.78
2022-09-03T09:36:34.991Z,18.76
2022-09-03T09:37:34.984Z,18.76
2022-09-03T09:38:34.965Z,18.68
2022-09-03T09:39:34.984Z,18.71
2022-09-03T09:40:34.966Z,18.76
2022-09-03T09:41:34.930Z,18.81
2022-09-03T09:42:34.919Z,18.76
2022-09-03T09:43:34.909Z,18.71
2022-09-03T09:44:34.912Z,18.78
2022-09-03T09:45:34.876Z,18.74
2022-09-03T09:46:34.898Z,18.82
2022-09-03T09:47:34.854Z,18.83
2022-09-03T09:48:34.842Z,18.88
2022-09-03T09:49:34.831Z,18.85
2022-09-03T09:50:34.815Z,18.68
2022-09-03T09:51:34.808Z,18.73
2022-09-03T09:52:34.789Z,18.74
2022-09-03T09:53:34.779Z,18.67
2022-09-03T09:54:34.768Z,18.76
2022-09-03T09:55:34.754Z,18.70
2022-09-03T09:56:34.743Z,18.76
2022-09-03T09:57:34.728Z,18.85
2022-09-03T09:58:34.718Z,18.85
2022-09-03T09:59:34.716Z,18.85
2022-09-03T10:00:34.695Z,18.89
2022-09-03T10:01:34.724Z,18.86
2022-09-03T10:02:34.724Z,18.89
2022-09-03T10:03:34.654Z,18.83
2022-09-03T10:04:34.703Z,18.94
2022-09-03T10:05:34.631Z,19.00
2022-09-03T10:06:34.623Z,19.00
2022-09-03T10:07:34.607Z,19.05
2022-09-03T10:08:34.607Z,18.96
2022-09-03T10:09:34.599Z,19.01
2022-09-03T10:10:34.565Z,19.11
2022-09-03T10:11:34.552Z,19.09
2022-09-03T10:12:34.541Z,19.24
2022-09-03T10:13:34.528Z,19.37
2022-09-03T10:14:34.517Z,19.56
2022-09-03T10:15:34.584Z,19.48
2022-09-03T10:16:34.499Z,19.56
2022-09-03T10:17:36.874Z,19.66
2022-09-03T10:18:34.467Z,19.67
2022-09-03T10:19:34.453Z,19.63
2022-09-03T10:20:34.444Z,19.63
2022-09-03T10:21:34.431Z,19.78
2022-09-03T10:22:35.370Z,19.66
2022-09-03T10:23:34.406Z,19.64
2022-09-03T10:24:34.395Z,19.67
2022-09-03T10:25:34.387Z,19.52
2022-09-03T10:26:34.369Z,19.47
2022-09-03T10:27:34.358Z,19.41
2022-09-03T10:28:34.356Z,19.30
2022-09-03T10:29:34.333Z,19.37
2022-09-03T10:30:34.329Z,19.23
2022-09-03T10:31:34.392Z,19.19
2022-09-03T10:32:37.927Z,19.09
2022-09-03T10:33:34.284Z,19.15
2022-09-03T10:34:34.276Z,19.16
2022-09-03T10:35:34.257Z,19.01
2022-09-03T10:36:34.253Z,19.16
2022-09-03T10:37:34.233Z,19.08
2022-09-03T10:38:34.225Z,19.17
2022-09-03T10:39:42.753Z,19.22
2022-09-03T10:40:34.195Z,19.29
2022-09-03T10:41:34.186Z,19.32
2022-09-03T10:42:34.170Z,19.35
2022-09-03T10:43:34.157Z,19.30
2022-09-03T10:44:34.146Z,19.29
2022-09-03T10:45:37.388Z,19.30
2022-09-03T10:46:34.211Z,19.29
2022-09-03T10:47:34.107Z,19.44
2022-09-03T10:48:34.113Z,19.45
2022-09-03T10:49:34.089Z,19.56
2022-09-03T10:50:34.073Z,19.60
2022-09-03T10:51:34.061Z,19.92
2022-09-03T10:52:34.058Z,20.04
2022-09-03T10:53:34.036Z,20.50
2022-09-03T10:54:34.022Z,20.92
2022-09-03T10:55:34.010Z,21.28
2022-09-03T10:56:34.001Z,21.80
2022-09-03T10:57:33.986Z,22.22
2022-09-03T10:58:34.436Z,22.51
2022-09-03T10:59:33.986Z,22.70
2022-09-03T11:00:33.955Z,23.06
2022-09-03T11:01:34.014Z,23.33
2022-09-03T11:02:33.995Z,23.76
2022-09-03T11:03:33.922Z,24.09
2022-09-03T11:04:36.282Z,24.62
2022-09-03T11:05:33.903Z,25.03
2022-09-03T11:06:33.897Z,25.52
2022-09-03T11:07:33.911Z,25.85
2022-09-03T11:08:33.877Z,26.16
2022-09-03T11:09:33.869Z,26.51
2022-09-03T11:10:33.857Z,26.85
2022-09-03T11:11:33.849Z,26.86
2022-09-03T11:12:33.842Z,26.97
2022-09-03T11:13:33.835Z,27.19
2022-09-03T11:14:33.828Z,27.55
2022-09-03T11:15:33.909Z,27.98
2022-09-03T11:16:33.816Z,28.16
2022-09-03T11:17:33.805Z,28.34
2022-09-03T11:18:33.797Z,28.55
2022-09-03T11:19:33.792Z,28.68
2022-09-03T11:20:33.788Z,28.87
2022-09-03T11:21:33.781Z,29.13
2022-09-03T11:22:33.793Z,29.25
2022-09-03T11:23:33.765Z,29.42
2022-09-03T11:24:33.760Z,29.61
2022-09-03T11:25:33.753Z,29.62
2022-09-03T11:26:33.749Z,29.80
2022-09-03T11:27:33.763Z,29.90
2022-09-03T11:28:33.758Z,29.83
2022-09-03T11:29:33.732Z,29.59
2022-09-03T11:30:33.817Z,29.69
2022-09-03T11:31:33.749Z,29.62
2022-09-03T11:32:33.717Z,29.67
2022-09-03T11:33:33.710Z,29.89
2022-09-03T11:34:33.711Z,29.94
2022-09-03T11:35:33.699Z,29.98
2022-09-03T11:36:33.699Z,30.05
2022-09-03T11:37:33.689Z,30.10
2022-09-03T11:38:33.689Z,30.11
2022-09-03T11:39:33.748Z,29.99
2022-09-03T11:40:33.679Z,29.94
2022-09-03T11:41:33.672Z,30.01
2022-09-03T11:42:33.669Z,30.13
2022-09-03T11:43:33.668Z,30.29
2022-09-03T11:44:33.660Z,30.32
2022-09-03T11:45:33.656Z,30.11
2022-09-03T11:46:33.741Z,29.83
2022-09-03T11:47:33.644Z,29.49
2022-09-03T11:48:33.644Z,29.13
2022-09-03T11:49:33.635Z,28.72
2022-09-03T11:50:33.798Z,28.52
2022-09-03T11:51:33.625Z,28.20
2022-09-03T11:52:33.622Z,27.95
2022-09-03T11:53:33.618Z,27.82
2022-09-03T11:54:33.609Z,27.52
2022-09-03T11:55:38.279Z,27.41
2022-09-03T11:56:33.600Z,27.29
2022-09-03T11:57:33.592Z,27.23
2022-09-03T11:58:33.585Z,27.25
2022-09-03T11:59:33.580Z,26.89
2022-09-03T12:00:33.586Z,26.64
2022-09-03T12:01:33.569Z,26.42
2022-09-03T12:02:33.672Z,26.15
2022-09-03T12:03:33.553Z,26.04
2022-09-03T12:04:33.590Z,25.88
2022-09-03T12:05:33.539Z,25.74
2022-09-03T12:06:33.542Z,25.56
2022-09-03T12:07:33.527Z,25.51
2022-09-03T12:08:33.519Z,25.68
2022-09-03T12:09:33.511Z,25.89
2022-09-03T12:10:33.508Z,26.07
2022-09-03T12:11:33.716Z,26.44
2022-09-03T12:12:33.492Z,26.70
2022-09-03T12:13:33.482Z,26.91
2022-09-03T12:14:33.479Z,27.15
2022-09-03T12:15:33.537Z,27.47
2022-09-03T12:16:33.514Z,27.86
2022-09-03T12:17:33.456Z,28.57
2022-09-03T12:18:33.450Z,29.09
2022-09-03T12:19:33.443Z,29.67
2022-09-03T12:20:33.439Z,30.36
2022-09-03T12:21:33.435Z,31.05
2022-09-03T12:22:33.452Z,31.82
2022-09-03T12:23:33.421Z,32.31
2022-09-03T12:24:37.085Z,32.49
2022-09-03T12:25:33.411Z,32.56
2022-09-03T12:26:33.428Z,32.39
2022-09-03T12:27:33.403Z,32.07
2022-09-03T12:28:33.398Z,31.70
2022-09-03T12:29:33.394Z,31.35
2022-09-03T12:30:33.443Z,30.98
2022-09-03T12:31:33.384Z,30.77
2022-09-03T12:32:33.388Z,30.58
2022-09-03T12:33:33.377Z,30.40
2022-09-03T12:34:33.373Z,30.14
2022-09-03T12:36:33.397Z,29.55
2022-09-03T12:38:44.502Z,28.84
2022-09-03T12:40:33.410Z,28.16
2022-09-03T12:41:33.404Z,27.93
2022-09-03T12:42:33.357Z,27.78
2022-09-03T12:43:43.283Z,27.34
2022-09-03T12:44:33.322Z,27.22
2022-09-03T12:46:09.867Z,26.92
2022-09-03T12:46:34.009Z,26.73
2022-09-03T12:47:36.076Z,26.53
2022-09-03T12:48:33.316Z,26.36
2022-09-03T12:49:33.287Z,26.16
2022-09-03T12:50:33.281Z,25.99
2022-09-03T12:51:52.047Z,25.95
2022-09-03T12:52:33.272Z,25.74
2022-09-03T12:53:33.258Z,25.58
2022-09-03T12:54:33.255Z,25.55
2022-09-03T12:55:33.250Z,25.48
2022-09-03T12:56:33.349Z,25.48
2022-09-03T12:57:33.240Z,25.39
2022-09-03T12:58:33.226Z,25.31
2022-09-03T12:59:33.217Z,25.24
2022-09-03T13:00:33.214Z,25.18
2022-09-03T13:01:33.292Z,25.03
2022-09-03T13:02:33.195Z,25.00